LOG451 EGPF-EGPR

Flight info

Callsign LOG451
Flight time 0h 50m
Altitude 10000
Route CLYDE L602 BRUCE DCT TIR
Aircraft DHC6/L-SDFGR/C

Departure

Time 2026-04-28 16:57
Airport Glasgow Airport (EGPF)

Arrival

Time 2026-04-28 17:47
Airport Barra Airport (EGPR)
Time Latitude Longitude Altitude Speed Heading
2026-04-28 16:43 55.86618 -4.42791 30 ft 0 kts 74°
2026-04-28 16:50 55.86618 -4.42793 30 ft 0 kts 74°
2026-04-28 16:51 55.86615 -4.42806 30 ft 2 kts 74°
2026-04-28 16:51 55.86611 -4.42832 30 ft 2 kts 74°
2026-04-28 16:51 55.86607 -4.42857 30 ft 2 kts 74°
2026-04-28 16:52 55.86604 -4.42873 30 ft 2 kts 57°
2026-04-28 16:52 55.86592 -4.42887 30 ft 2 kts 10°
2026-04-28 16:52 55.86583 -4.42886 30 ft 0 kts 348°
2026-04-28 16:55 55.86624 -4.42904 30 ft 9 kts 343°
2026-04-28 16:55 55.86710 -4.42954 30 ft 16 kts 335°
2026-04-28 16:55 55.86830 -4.43031 30 ft 20 kts 295°
2026-04-28 16:55 55.86798 -4.43310 30 ft 26 kts 257°
2026-04-28 16:56 55.86747 -4.43623 30 ft 16 kts 254°
2026-04-28 16:56 55.86764 -4.43777 30 ft 11 kts 360°
2026-04-28 16:56 55.86781 -4.43771 30 ft 5 kts 15°
2026-04-28 16:56 55.86842 -4.43733 30 ft 12 kts 19°
2026-04-28 16:57 55.86944 -4.43666 30 ft 18 kts 19°
2026-04-28 16:57 55.87194 -4.43335 95 ft 77 kts 46°
2026-04-28 16:57 55.87475 -4.42674 646 ft 69 kts 59°
2026-04-28 16:57 55.87732 -4.41892 988 ft 78 kts 65°
2026-04-28 16:58 55.87930 -4.41113 1384 ft 58 kts 58°
2026-04-28 16:58 55.88322 -4.40503 1424 ft 88 kts 40°
2026-04-28 16:58 55.88855 -4.39865 1626 ft 94 kts 35°
2026-04-28 16:58 55.89392 -4.39250 1891 ft 92 kts 36°
2026-04-28 16:59 55.89868 -4.38520 2147 ft 90 kts 49°
2026-04-28 16:59 55.90403 -4.37967 2380 ft 95 kts 12°
2026-04-28 16:59 55.91037 -4.38356 2616 ft 104 kts 325°
2026-04-28 16:59 55.91367 -4.39538 2847 ft 112 kts 280°
2026-04-28 17:00 55.91251 -4.40935 3070 ft 115 kts 262°
2026-04-28 17:00 55.91160 -4.42337 3295 ft 115 kts 270°
2026-04-28 17:00 55.91101 -4.43759 3521 ft 115 kts 270°
2026-04-28 17:00 55.91043 -4.45201 3741 ft 117 kts 270°
2026-04-28 17:01 55.90986 -4.46639 3970 ft 116 kts 270°
2026-04-28 17:01 55.90929 -4.48081 4185 ft 117 kts 269°
2026-04-28 17:01 55.90874 -4.49528 4405 ft 117 kts 269°
2026-04-28 17:01 55.90817 -4.50979 4614 ft 118 kts 269°
2026-04-28 17:02 55.90760 -4.52434 4823 ft 119 kts 269°
2026-04-28 17:02 55.90738 -4.53416 4962 ft 118 kts 278°
2026-04-28 17:02 55.90996 -4.55274 5223 ft 116 kts 296°
2026-04-28 17:02 55.91260 -4.56641 5424 ft 117 kts 295°
2026-04-28 17:03 55.91847 -4.59359 5940 ft 119 kts 298°
2026-04-28 17:03 55.92151 -4.60701 6283 ft 118 kts 298°
2026-04-28 17:03 55.92459 -4.62059 6643 ft 118 kts 298°
2026-04-28 17:04 55.93078 -4.64790 7293 ft 122 kts 299°
2026-04-28 17:04 55.93305 -4.65782 7529 ft 122 kts 298°
2026-04-28 17:05 55.93938 -4.68582 8158 ft 124 kts 299°
2026-04-28 17:05 55.94264 -4.70016 8472 ft 124 kts 300°
2026-04-28 17:05 55.94587 -4.71444 8775 ft 125 kts 300°
2026-04-28 17:06 55.95238 -4.74323 9342 ft 127 kts 301°
2026-04-28 17:06 55.95569 -4.75780 9616 ft 128 kts 301°
2026-04-28 17:06 55.96244 -4.78764 10186 ft 131 kts 301°
2026-04-28 17:07 55.96618 -4.80213 10429 ft 134 kts 304°
2026-04-28 17:07 55.97059 -4.81852 10427 ft 156 kts 303°
2026-04-28 17:07 55.97545 -4.83681 10428 ft 171 kts 303°
2026-04-28 17:07 55.98071 -4.85667 10427 ft 182 kts 302°
2026-04-28 17:08 55.98622 -4.87756 10422 ft 190 kts 302°
2026-04-28 17:08 55.99191 -4.89900 10419 ft 195 kts 301°
2026-04-28 17:08 55.99769 -4.92091 10433 ft 199 kts 301°
2026-04-28 17:08 56.00367 -4.94347 10433 ft 201 kts 301°
2026-04-28 17:09 56.00964 -4.96622 10441 ft 204 kts 301°
2026-04-28 17:09 56.01572 -4.98919 10441 ft 205 kts 302°
2026-04-28 17:09 56.02179 -5.01223 10435 ft 206 kts 302°
2026-04-28 17:09 56.02786 -5.03530 10446 ft 207 kts 302°
2026-04-28 17:10 56.03398 -5.05853 10420 ft 207 kts 302°
2026-04-28 17:10 56.04018 -5.08192 10419 ft 206 kts 301°
2026-04-28 17:10 56.04624 -5.10507 10435 ft 207 kts 301°
2026-04-28 17:10 56.05239 -5.12845 10437 ft 207 kts 301°
2026-04-28 17:11 56.05848 -5.15169 10441 ft 208 kts 301°
2026-04-28 17:11 56.06464 -5.17518 10441 ft 209 kts 301°
2026-04-28 17:11 56.07083 -5.19888 10434 ft 210 kts 301°
2026-04-28 17:11 56.07700 -5.22251 10424 ft 209 kts 301°
2026-04-28 17:12 56.08312 -5.24597 10424 ft 209 kts 301°
2026-04-28 17:12 56.08926 -5.26945 10421 ft 209 kts 301°
2026-04-28 17:12 56.09544 -5.29322 10427 ft 209 kts 301°
2026-04-28 17:12 56.10154 -5.31665 10422 ft 208 kts 301°
2026-04-28 17:13 56.10764 -5.34008 10433 ft 208 kts 301°
2026-04-28 17:13 56.11380 -5.36373 10432 ft 209 kts 301°
2026-04-28 17:13 56.11992 -5.38730 10433 ft 209 kts 300°
2026-04-28 17:13 56.12607 -5.41098 10432 ft 209 kts 300°
2026-04-28 17:14 56.13209 -5.43434 10409 ft 208 kts 301°
2026-04-28 17:14 56.13817 -5.45787 10455 ft 208 kts 301°
2026-04-28 17:14 56.14423 -5.48124 10433 ft 209 kts 301°
2026-04-28 17:14 56.15033 -5.50487 10430 ft 209 kts 301°
2026-04-28 17:15 56.15639 -5.52844 10431 ft 208 kts 301°
2026-04-28 17:15 56.16243 -5.55192 10431 ft 207 kts 301°
2026-04-28 17:15 56.16852 -5.57557 10452 ft 209 kts 301°
2026-04-28 17:15 56.17466 -5.59935 10437 ft 211 kts 301°
2026-04-28 17:16 56.18073 -5.62310 10417 ft 211 kts 301°
2026-04-28 17:16 56.18689 -5.64698 10428 ft 210 kts 301°
2026-04-28 17:16 56.19295 -5.67059 10412 ft 209 kts 300°
2026-04-28 17:16 56.19899 -5.69429 10421 ft 208 kts 300°
2026-04-28 17:17 56.20502 -5.71783 10418 ft 209 kts 300°
2026-04-28 17:17 56.21104 -5.74144 10426 ft 209 kts 300°
2026-04-28 17:17 56.21708 -5.76510 10432 ft 209 kts 300°
2026-04-28 17:17 56.22312 -5.78881 10418 ft 209 kts 300°
2026-04-28 17:18 56.22918 -5.81265 10409 ft 208 kts 300°
2026-04-28 17:18 56.23511 -5.83599 10422 ft 206 kts 300°
2026-04-28 17:18 56.24112 -5.85957 10438 ft 207 kts 299°
2026-04-28 17:18 56.24707 -5.88303 10452 ft 208 kts 299°
2026-04-28 17:19 56.25304 -5.90661 10430 ft 208 kts 299°
2026-04-28 17:19 56.25908 -5.93044 10440 ft 208 kts 299°
2026-04-28 17:19 56.26507 -5.95410 10437 ft 208 kts 299°
2026-04-28 17:19 56.27101 -5.97758 10443 ft 208 kts 299°
2026-04-28 17:20 56.27707 -6.00153 10448 ft 209 kts 299°
2026-04-28 17:20 56.28101 -6.01720 10437 ft 209 kts 299°
2026-04-28 17:20 56.28892 -6.04874 10445 ft 208 kts 300°
2026-04-28 17:20 56.29496 -6.07261 10438 ft 209 kts 299°
2026-04-28 17:21 56.30093 -6.09643 10436 ft 208 kts 299°
2026-04-28 17:21 56.30689 -6.12019 10438 ft 208 kts 299°
2026-04-28 17:21 56.31280 -6.14371 10441 ft 208 kts 299°
2026-04-28 17:22 56.32467 -6.19119 10421 ft 207 kts 300°
2026-04-28 17:22 56.33058 -6.21475 10448 ft 208 kts 300°
2026-04-28 17:22 56.33654 -6.23856 10445 ft 209 kts 299°
2026-04-28 17:23 56.34841 -6.28619 10433 ft 208 kts 299°
2026-04-28 17:23 56.35423 -6.30966 10434 ft 207 kts 299°
2026-04-28 17:23 56.36011 -6.33327 10435 ft 207 kts 299°
2026-04-28 17:23 56.36599 -6.35692 10453 ft 208 kts 299°
2026-04-28 17:24 56.37189 -6.38069 10443 ft 208 kts 299°
2026-04-28 17:24 56.37776 -6.40441 10434 ft 207 kts 299°
2026-04-28 17:24 56.38363 -6.42816 10450 ft 206 kts 299°
2026-04-28 17:24 56.38947 -6.45177 10458 ft 207 kts 299°
2026-04-28 17:25 56.39534 -6.47548 10446 ft 209 kts 299°
2026-04-28 17:25 56.40713 -6.52326 10433 ft 207 kts 298°
2026-04-28 17:25 56.41290 -6.54675 10436 ft 207 kts 299°
2026-04-28 17:26 56.41873 -6.57047 10423 ft 207 kts 299°
2026-04-28 17:26 56.42454 -6.59409 10445 ft 206 kts 299°
2026-04-28 17:26 56.43041 -6.61791 10450 ft 206 kts 299°
2026-04-28 17:26 56.43613 -6.64135 10451 ft 206 kts 299°
2026-04-28 17:27 56.44199 -6.66526 10449 ft 207 kts 298°
2026-04-28 17:27 56.44777 -6.68885 10449 ft 207 kts 298°
2026-04-28 17:27 56.45358 -6.71257 10448 ft 207 kts 298°
2026-04-28 17:27 56.45943 -6.73652 10449 ft 207 kts 298°
2026-04-28 17:28 56.46519 -6.76023 10449 ft 208 kts 298°
2026-04-28 17:28 56.48133 -6.80001 10443 ft 192 kts 341°
2026-04-28 17:28 56.49323 -6.81063 10447 ft 190 kts 344°
2026-04-28 17:29 56.50560 -6.81977 10447 ft 190 kts 345°
2026-04-28 17:29 56.51799 -6.82792 10449 ft 190 kts 346°
2026-04-28 17:29 56.53044 -6.83566 10449 ft 190 kts 346°
2026-04-28 17:30 56.55555 -6.85051 10449 ft 190 kts 347°
2026-04-28 17:30 56.58083 -6.86501 10449 ft 191 kts 348°
2026-04-28 17:30 56.59358 -6.87225 10449 ft 191 kts 348°
2026-04-28 17:31 56.60616 -6.87939 10449 ft 191 kts 348°
2026-04-28 17:31 56.63157 -6.89377 10449 ft 191 kts 348°
2026-04-28 17:32 56.65681 -6.90808 10449 ft 191 kts 348°
2026-04-28 17:32 56.66954 -6.91529 10449 ft 191 kts 348°
2026-04-28 17:32 56.68220 -6.92248 10446 ft 191 kts 348°
2026-04-28 17:32 56.69490 -6.92970 10447 ft 191 kts 348°
2026-04-28 17:33 56.70748 -6.93687 10449 ft 191 kts 348°
2026-04-28 17:33 56.72007 -6.94404 10449 ft 190 kts 348°
2026-04-28 17:33 56.73226 -6.95104 10362 ft 175 kts 348°
2026-04-28 17:33 56.74007 -6.95537 10099 ft 179 kts 348°
2026-04-28 17:34 56.75589 -6.96434 9804 ft 180 kts 347°
2026-04-28 17:34 56.76785 -6.97115 9578 ft 178 kts 347°
2026-04-28 17:34 56.77954 -6.97783 9363 ft 177 kts 347°
2026-04-28 17:34 56.79130 -6.98455 9076 ft 176 kts 347°
2026-04-28 17:35 56.80293 -6.99122 8787 ft 176 kts 347°
2026-04-28 17:35 56.81451 -6.99779 8489 ft 176 kts 347°
2026-04-28 17:35 56.82622 -7.00449 8222 ft 175 kts 347°
2026-04-28 17:35 56.83775 -7.01107 7942 ft 175 kts 347°
2026-04-28 17:36 56.84923 -7.01763 7667 ft 174 kts 347°
2026-04-28 17:36 56.86080 -7.02427 7368 ft 174 kts 347°
2026-04-28 17:36 56.87219 -7.03079 7081 ft 174 kts 346°
2026-04-28 17:36 56.88372 -7.03741 6760 ft 172 kts 346°
2026-04-28 17:37 56.89511 -7.04395 6417 ft 172 kts 346°
2026-04-28 17:37 56.90640 -7.05043 6060 ft 171 kts 346°
2026-04-28 17:37 56.91768 -7.05689 5706 ft 171 kts 346°
2026-04-28 17:37 56.92892 -7.06334 5349 ft 170 kts 346°
2026-04-28 17:38 56.94021 -7.06985 4989 ft 170 kts 346°
2026-04-28 17:38 56.95145 -7.07631 4633 ft 169 kts 346°
2026-04-28 17:38 56.96253 -7.08272 4285 ft 169 kts 346°
2026-04-28 17:38 56.97373 -7.08917 3937 ft 168 kts 346°
2026-04-28 17:39 56.98465 -7.09547 3531 ft 166 kts 346°
2026-04-28 17:39 56.99549 -7.10170 3148 ft 163 kts 345°
2026-04-28 17:39 57.01706 -7.11422 2298 ft 162 kts 341°
2026-04-28 17:40 57.02566 -7.12692 2058 ft 152 kts 312°
2026-04-28 17:40 57.03300 -7.13941 2092 ft 140 kts 313°
2026-04-28 17:40 57.03991 -7.15159 2097 ft 134 kts 315°
2026-04-28 17:40 57.04653 -7.16331 2099 ft 130 kts 316°
2026-04-28 17:41 57.05295 -7.17469 2100 ft 127 kts 316°
2026-04-28 17:41 57.05921 -7.18582 2101 ft 125 kts 317°
2026-04-28 17:41 57.06539 -7.19678 2101 ft 124 kts 317°
2026-04-28 17:41 57.07159 -7.20778 2101 ft 123 kts 317°
2026-04-28 17:42 57.07666 -7.22006 2035 ft 119 kts 289°
2026-04-28 17:42 57.07700 -7.23003 1858 ft 119 kts 259°
2026-04-28 17:42 57.07286 -7.24869 1499 ft 120 kts 245°
2026-04-28 17:42 57.06966 -7.26171 1453 ft 102 kts 245°
2026-04-28 17:43 57.06686 -7.27324 1470 ft 97 kts 245°
2026-04-28 17:43 57.06412 -7.28448 1474 ft 94 kts 245°
2026-04-28 17:43 57.06146 -7.29550 1477 ft 93 kts 245°
2026-04-28 17:43 57.05885 -7.30623 1471 ft 92 kts 245°
2026-04-28 17:44 57.05632 -7.31669 1410 ft 87 kts 244°
2026-04-28 17:44 57.05387 -7.32676 1226 ft 85 kts 244°
2026-04-28 17:44 57.05146 -7.33672 977 ft 87 kts 244°
2026-04-28 17:44 57.04899 -7.34686 732 ft 87 kts 244°
2026-04-28 17:45 57.04670 -7.35679 571 ft 80 kts 248°
2026-04-28 17:45 57.04471 -7.36627 502 ft 78 kts 246°
2026-04-28 17:45 57.04272 -7.37540 493 ft 77 kts 250°
2026-04-28 17:45 57.04100 -7.38422 489 ft 71 kts 249°
2026-04-28 17:46 57.03933 -7.39258 446 ft 71 kts 250°
2026-04-28 17:46 57.03763 -7.40109 411 ft 69 kts 248°
2026-04-28 17:46 57.03574 -7.40921 400 ft 70 kts 245°
2026-04-28 17:46 57.03348 -7.41708 391 ft 70 kts 239°
2026-04-28 17:47 57.03109 -7.42493 321 ft 71 kts 241°
2026-04-28 17:47 57.02890 -7.43311 186 ft 70 kts 245°
2026-04-28 17:47 57.02700 -7.44119 23 ft 67 kts 248°
2026-04-28 17:47 57.02610 -7.44589 8 ft 42 kts 257°
2026-04-28 17:48 57.02627 -7.45569 298 ft 50 kts 310°
2026-04-28 17:48 57.03025 -7.45768 229 ft 65 kts
2026-04-28 17:48 57.03414 -7.45467 322 ft 67 kts 47°
2026-04-28 17:48 57.03656 -7.44689 409 ft 72 kts 75°
2026-04-28 17:49 57.03744 -7.43780 468 ft 71 kts 90°
2026-04-28 17:49 57.03502 -7.43062 346 ft 72 kts 161°
2026-04-28 17:49 57.03072 -7.43391 215 ft 67 kts 218°
2026-04-28 17:49 57.02756 -7.44032 57 ft 68 kts 237°
2026-04-28 17:50 57.02584 -7.44745 6 ft 49 kts 252°
2026-04-28 17:50 57.02371 -7.45352 220 ft 53 kts 225°
2026-04-28 17:50 57.02437 -7.45377 191 ft 89 kts 90°
2026-04-28 17:50 57.02321 -7.44358 664 ft 78 kts 109°
2026-04-28 17:51 57.02125 -7.43446 586 ft 80 kts 109°
2026-04-28 17:51 57.02103 -7.42570 462 ft 68 kts 58°
2026-04-28 17:51 57.02557 -7.42568 265 ft 72 kts 318°
2026-04-28 17:51 57.02727 -7.43417 120 ft 70 kts 274°
2026-04-28 17:52 57.02671 -7.44247 5 ft 59 kts 254°
2026-04-28 17:52 57.02606 -7.44731 13 ft 13 kts 231°
2026-04-28 17:52 57.02561 -7.44829 7 ft 0 kts 229°